Bradley, Mississippi
Current Conditions -  °F | °C
As of 6:15 AM on Thursday 18 Dec 2014 (Local Time) from KSTF Reporting Station
Overcast Overcast  
Wind Chill: 41°   Ceiling: 6000
Heat Index: 41°   Visibility: 10mi
Dew Point: 36°   Wind: 3mph
Humidity: 81%   Direction: 50°NE
Pressure: 30.22"   Gusts: NA
Location:  33.4256°N, 88.8438°W
Report Text: KSTF 181215Z AUTO 05003KT 10SM BKN060 OVC070 05/02 A3022 RMK AO2
Loading
Personal Weather Stations






























Interactive Weather Map New forecast layout! Learn more

10-Day Weather Forecast

Advertisements
Track Severe Weather on mobile